This is the latest recevied weather packets stored in our database for station/object PY2FLB-13. If no packets are shown the sender has not sent any weather packets the latest 10 day(s).
| Time | Temp. | Humidity | Pressure | Rain* | Wind** | Luminosity | Snow |
|---|---|---|---|---|---|---|---|
| 1777628303 | 23.89° C | 67% | 1016.1 hPa | - | - | - | - |
| 1777628003 | 23.89° C | 66% | 1015.9 hPa | - | - | - | - |
| 1777627704 | 23.89° C | 66% | 1015.8 hPa | - | - | - | - |
| 1777627414 | 23.89° C | 66% | 1015.7 hPa | - | - | - | - |
| 1777627103 | 23.89° C | 66% | 1015.6 hPa | - | - | - | - |
| 1777626813 | 23.89° C | 66% | 1015.6 hPa | - | - | - | - |
| 1777626504 | 24.44° C | 64% | 1015.3 hPa | - | - | - | - |
| 1777626246 | 24.44° C | 64% | 1015.2 hPa | - | - | - | - |
| 1777625904 | 24.44° C | 65% | 1015.1 hPa | - | - | - | - |
| 1777625604 | 23.89° C | 66% | 1015.2 hPa | - | - | - | - |
| 1777625303 | 24.44° C | 64% | 1014.9 hPa | - | - | - | - |
| 1777625003 | 23.89° C | 66% | 1014.9 hPa | - | - | - | - |
| 1777624707 | 23.89° C | 65% | 1014.8 hPa | - | - | - | - |
| 1777624403 | 23.89° C | 66% | 1014.7 hPa | - | - | - | - |
| 1777623204 | 24.44° C | 64% | 1014.4 hPa | - | - | - | - |
| 1777622903 | 24.44° C | 65% | 1014.5 hPa | - | - | - | - |
| 1777622603 | 24.44° C | 64% | 1014.4 hPa | - | - | - | - |
| 1777622303 | 23.89° C | 66% | 1014.5 hPa | - | - | - | - |
| 1777622004 | 23.89° C | 65% | 1014.5 hPa | - | - | - | - |
| 1777621703 | 24.44° C | 63% | 1014.3 hPa | - | - | - | - |
| 1777621403 | 23.89° C | 65% | 1014.3 hPa | - | - | - | - |
| 1777621103 | 24.44° C | 64% | 1014.1 hPa | - | - | - | - |
| 1777620803 | 25.56° C | 61% | 1013.8 hPa | - | - | - | - |
| 1777620503 | 24.44° C | 64% | 1014 hPa | - | - | - | - |
| 1777620203 | 24.44° C | 65% | 1014.1 hPa | - | - | - | - |
* Rain since midnight (hover to see other rain measurements)
** Current wind speed in m/s (hover to see current wind gust speed)